sensor_id;sensor_type;location;lat;lon;timestamp;pressure;altitude;pressure_sealevel;temperature;humidity
48652;BME280;34442;52.362;-1.302;2023-07-31T00:01:52;99275.53;;;18.65;100.00
48652;BME280;34442;52.362;-1.302;2023-07-31T00:04:18;99276.59;;;18.64;100.00
48652;BME280;34442;52.362;-1.302;2023-07-31T00:06:43;99265.97;;;18.67;100.00
48652;BME280;34442;52.362;-1.302;2023-07-31T00:09:08;99261.09;;;18.64;100.00
48652;BME280;34442;52.362;-1.302;2023-07-31T00:11:34;99260.81;;;18.66;100.00
48652;BME280;34442;52.362;-1.302;2023-07-31T00:13:59;99250.72;;;18.66;100.00
48652;BME280;34442;52.362;-1.302;2023-07-31T00:16:25;99250.44;;;18.68;100.00
48652;BME280;34442;52.362;-1.302;2023-07-31T00:18:50;99244.97;;;18.68;100.00
48652;BME280;34442;52.362;-1.302;2023-07-31T00:21:16;99243.34;;;18.72;100.00
48652;BME280;34442;52.362;-1.302;2023-07-31T00:23:41;99244.19;;;18.72;100.00
48652;BME280;34442;52.362;-1.302;2023-07-31T00:26:06;99242.53;;;18.71;100.00
48652;BME280;34442;52.362;-1.302;2023-07-31T00:28:32;99233.81;;;18.69;100.00
48652;BME280;34442;52.362;-1.302;2023-07-31T00:30:57;99229.75;;;18.67;100.00
48652;BME280;34442;52.362;-1.302;2023-07-31T00:33:23;99226.53;;;18.65;100.00
48652;BME280;34442;52.362;-1.302;2023-07-31T00:35:48;99220.78;;;18.66;100.00
48652;BME280;34442;52.362;-1.302;2023-07-31T00:38:14;99220.75;;;18.71;100.00
48652;BME280;34442;52.362;-1.302;2023-07-31T00:40:40;99219.94;;;18.71;100.00
48652;BME280;34442;52.362;-1.302;2023-07-31T00:43:05;99219.69;;;18.67;100.00
48652;BME280;34442;52.362;-1.302;2023-07-31T00:45:31;99218.03;;;18.71;100.00
48652;BME280;34442;52.362;-1.302;2023-07-31T00:47:57;99216.41;;;18.70;100.00
48652;BME280;34442;52.362;-1.302;2023-07-31T00:50:24;99214.50;;;18.71;100.00
48652;BME280;34442;52.362;-1.302;2023-07-31T00:52:50;99210.91;;;18.75;100.00
48652;BME280;34442;52.362;-1.302;2023-07-31T00:55:16;99211.44;;;18.77;100.00
48652;BME280;34442;52.362;-1.302;2023-07-31T00:57:45;99199.97;;;18.80;100.00
48652;BME280;34442;52.362;-1.302;2023-07-31T01:00:10;99198.56;;;18.83;100.00
48652;BME280;34442;52.362;-1.302;2023-07-31T01:02:36;99193.94;;;18.83;100.00
48652;BME280;34442;52.362;-1.302;2023-07-31T01:05:03;99181.41;;;18.82;100.00
48652;BME280;34442;52.362;-1.302;2023-07-31T01:10:37;99185.41;;;18.90;100.00
48652;BME280;34442;52.362;-1.302;2023-07-31T01:13:04;99173.78;;;18.84;100.00
48652;BME280;34442;52.362;-1.302;2023-07-31T01:15:31;99179.00;;;18.81;100.00
48652;BME280;34442;52.362;-1.302;2023-07-31T01:17:56;99171.97;;;18.75;100.00
48652;BME280;34442;52.362;-1.302;2023-07-31T01:20:23;99168.69;;;18.78;100.00
48652;BME280;34442;52.362;-1.302;2023-07-31T01:23:11;99163.75;;;18.80;100.00
48652;BME280;34442;52.362;-1.302;2023-07-31T01:25:53;99165.16;;;18.77;100.00
48652;BME280;34442;52.362;-1.302;2023-07-31T01:29:01;99160.69;;;18.87;100.00
48652;BME280;34442;52.362;-1.302;2023-07-31T01:31:29;99149.38;;;18.74;100.00
48652;BME280;34442;52.362;-1.302;2023-07-31T01:33:58;99153.16;;;18.78;100.00
48652;BME280;34442;52.362;-1.302;2023-07-31T01:36:25;99151.47;;;18.82;100.00
48652;BME280;34442;52.362;-1.302;2023-07-31T01:38:51;99153.63;;;18.86;100.00
48652;BME280;34442;52.362;-1.302;2023-07-31T01:41:17;99150.91;;;18.86;100.00
48652;BME280;34442;52.362;-1.302;2023-07-31T01:43:43;99145.69;;;18.89;100.00
48652;BME280;34442;52.362;-1.302;2023-07-31T01:46:09;99146.47;;;18.90;100.00
48652;BME280;34442;52.362;-1.302;2023-07-31T01:48:34;99143.75;;;18.90;100.00
48652;BME280;34442;52.362;-1.302;2023-07-31T01:51:02;99139.44;;;18.89;100.00
48652;BME280;34442;52.362;-1.302;2023-07-31T01:53:28;99137.75;;;18.93;100.00
48652;BME280;34442;52.362;-1.302;2023-07-31T01:55:54;99136.03;;;18.97;100.00
48652;BME280;34442;52.362;-1.302;2023-07-31T01:58:19;99131.34;;;19.02;100.00
48652;BME280;34442;52.362;-1.302;2023-07-31T02:00:45;99135.97;;;19.02;100.00
48652;BME280;34442;52.362;-1.302;2023-07-31T02:03:11;99140.31;;;19.03;100.00
48652;BME280;34442;52.362;-1.302;2023-07-31T02:05:44;99135.44;;;19.00;100.00
48652;BME280;34442;52.362;-1.302;2023-07-31T02:08:09;99132.50;;;18.96;100.00
48652;BME280;34442;52.362;-1.302;2023-07-31T02:10:34;99125.28;;;18.87;100.00
48652;BME280;34442;52.362;-1.302;2023-07-31T02:13:00;99130.72;;;18.87;100.00
48652;BME280;34442;52.362;-1.302;2023-07-31T02:15:25;99122.06;;;18.84;100.00
48652;BME280;34442;52.362;-1.302;2023-07-31T02:17:50;99125.84;;;18.83;100.00
48652;BME280;34442;52.362;-1.302;2023-07-31T02:20:16;99116.66;;;18.79;100.00
48652;BME280;34442;52.362;-1.302;2023-07-31T02:22:41;99114.53;;;18.76;100.00
48652;BME280;34442;52.362;-1.302;2023-07-31T02:25:07;99116.06;;;18.82;100.00
48652;BME280;34442;52.362;-1.302;2023-07-31T02:27:32;99113.41;;;18.77;100.00
48652;BME280;34442;52.362;-1.302;2023-07-31T02:29:58;99109.00;;;18.81;100.00
48652;BME280;34442;52.362;-1.302;2023-07-31T02:32:24;99113.56;;;18.86;100.00
48652;BME280;34442;52.362;-1.302;2023-07-31T02:34:50;99116.28;;;18.86;100.00
48652;BME280;34442;52.362;-1.302;2023-07-31T02:37:15;99108.69;;;18.83;100.00
48652;BME280;34442;52.362;-1.302;2023-07-31T02:39:40;99105.47;;;18.81;100.00
48652;BME280;34442;52.362;-1.302;2023-07-31T02:42:06;99102.75;;;18.81;100.00
48652;BME280;34442;52.362;-1.302;2023-07-31T02:44:31;99104.06;;;18.83;100.00
48652;BME280;34442;52.362;-1.302;2023-07-31T02:46:56;99105.72;;;18.84;100.00
48652;BME280;34442;52.362;-1.302;2023-07-31T02:49:22;99106.44;;;18.90;100.00
48652;BME280;34442;52.362;-1.302;2023-07-31T02:51:47;99105.63;;;18.90;100.00
48652;BME280;34442;52.362;-1.302;2023-07-31T02:54:13;99114.03;;;18.93;100.00
48652;BME280;34442;52.362;-1.302;2023-07-31T02:56:38;99101.50;;;18.92;100.00
48652;BME280;34442;52.362;-1.302;2023-07-31T02:59:03;99108.94;;;18.87;100.00
48652;BME280;34442;52.362;-1.302;2023-07-31T03:01:29;99092.81;;;18.90;100.00
48652;BME280;34442;52.362;-1.302;2023-07-31T03:03:54;99099.59;;;18.93;100.00
48652;BME280;34442;52.362;-1.302;2023-07-31T03:06:20;99092.44;;;18.97;100.00
48652;BME280;34442;52.362;-1.302;2023-07-31T03:08:45;99093.28;;;18.97;100.00
48652;BME280;34442;52.362;-1.302;2023-07-31T03:11:10;99097.84;;;19.02;100.00
48652;BME280;34442;52.362;-1.302;2023-07-31T03:13:36;99088.88;;;19.01;100.00
48652;BME280;34442;52.362;-1.302;2023-07-31T03:16:01;99082.00;;;19.04;100.00
48652;BME280;34442;52.362;-1.302;2023-07-31T03:18:27;99077.34;;;19.04;100.00
48652;BME280;34442;52.362;-1.302;2023-07-31T03:20:52;99067.88;;;19.02;100.00
48652;BME280;34442;52.362;-1.302;2023-07-31T03:23:17;99065.44;;;19.00;100.00
48652;BME280;34442;52.362;-1.302;2023-07-31T03:26:07;99076.28;;;19.05;100.00
48652;BME280;34442;52.362;-1.302;2023-07-31T03:28:32;99075.75;;;19.03;100.00
48652;BME280;34442;52.362;-1.302;2023-07-31T03:30:57;99078.81;;;18.97;100.00
48652;BME280;34442;52.362;-1.302;2023-07-31T03:33:23;99081.53;;;18.97;100.00
48652;BME280;34442;52.362;-1.302;2023-07-31T03:35:48;99073.59;;;19.00;100.00
48652;BME280;34442;52.362;-1.302;2023-07-31T03:38:14;99069.72;;;19.06;100.00
48652;BME280;34442;52.362;-1.302;2023-07-31T03:40:39;99084.13;;;19.07;100.00
48652;BME280;34442;52.362;-1.302;2023-07-31T03:43:05;99074.06;;;19.07;100.00
48652;BME280;34442;52.362;-1.302;2023-07-31T03:45:30;99068.81;;;19.11;100.00
48652;BME280;34442;52.362;-1.302;2023-07-31T03:47:56;99075.09;;;19.12;100.00
48652;BME280;34442;52.362;-1.302;2023-07-31T03:50:21;99079.72;;;19.11;100.00
48652;BME280;34442;52.362;-1.302;2023-07-31T03:52:47;99080.22;;;19.13;100.00
48652;BME280;34442;52.362;-1.302;2023-07-31T03:55:12;99070.44;;;19.12;100.00
48652;BME280;34442;52.362;-1.302;2023-07-31T03:57:37;99071.31;;;19.07;100.00
48652;BME280;34442;52.362;-1.302;2023-07-31T04:00:03;99067.50;;;19.08;100.00
48652;BME280;34442;52.362;-1.302;2023-07-31T04:02:29;99063.97;;;19.08;100.00
48652;BME280;34442;52.362;-1.302;2023-07-31T04:04:54;99065.56;;;19.09;100.00
48652;BME280;34442;52.362;-1.302;2023-07-31T04:07:19;99057.56;;;18.99;100.00
48652;BME280;34442;52.362;-1.302;2023-07-31T04:09:45;99059.47;;;18.98;100.00
48652;BME280;34442;52.362;-1.302;2023-07-31T04:12:10;99060.19;;;19.04;100.00
48652;BME280;34442;52.362;-1.302;2023-07-31T04:14:36;99060.97;;;19.09;100.00
48652;BME280;34442;52.362;-1.302;2023-07-31T04:17:02;99059.31;;;19.08;100.00
48652;BME280;34442;52.362;-1.302;2023-07-31T04:19:27;99061.75;;;19.10;100.00
48652;BME280;34442;52.362;-1.302;2023-07-31T04:21:52;99058.44;;;19.13;100.00
48652;BME280;34442;52.362;-1.302;2023-07-31T04:24:18;99062.00;;;19.14;100.00
48652;BME280;34442;52.362;-1.302;2023-07-31T04:26:50;99072.06;;;18.94;100.00
48652;BME280;34442;52.362;-1.302;2023-07-31T04:29:15;99066.47;;;18.86;100.00
48652;BME280;34442;52.362;-1.302;2023-07-31T04:31:41;99062.94;;;18.85;100.00
48652;BME280;34442;52.362;-1.302;2023-07-31T04:34:06;99069.78;;;18.82;100.00
48652;BME280;34442;52.362;-1.302;2023-07-31T04:36:34;99069.69;;;18.88;100.00
48652;BME280;34442;52.362;-1.302;2023-07-31T04:39:00;99078.16;;;18.86;100.00
48652;BME280;34442;52.362;-1.302;2023-07-31T04:41:26;99070.22;;;18.90;100.00
48652;BME280;34442;52.362;-1.302;2023-07-31T04:43:51;99070.81;;;18.87;100.00
48652;BME280;34442;52.362;-1.302;2023-07-31T04:46:16;99068.97;;;18.82;100.00
48652;BME280;34442;52.362;-1.302;2023-07-31T04:48:42;99079.59;;;19.02;100.00
48652;BME280;34442;52.362;-1.302;2023-07-31T04:51:08;99071.47;;;19.16;100.00
48652;BME280;34442;52.362;-1.302;2023-07-31T04:53:35;99064.91;;;19.17;100.00
48652;BME280;34442;52.362;-1.302;2023-07-31T04:56:00;99073.06;;;19.17;100.00
48652;BME280;34442;52.362;-1.302;2023-07-31T04:58:26;99072.00;;;19.18;100.00
48652;BME280;34442;52.362;-1.302;2023-07-31T05:00:51;99080.97;;;19.19;100.00
48652;BME280;34442;52.362;-1.302;2023-07-31T05:03:17;99077.72;;;19.17;100.00
48652;BME280;34442;52.362;-1.302;2023-07-31T05:05:42;99082.09;;;19.18;100.00
48652;BME280;34442;52.362;-1.302;2023-07-31T05:08:07;99079.38;;;19.18;100.00
48652;BME280;34442;52.362;-1.302;2023-07-31T05:10:33;99079.38;;;19.18;100.00
48652;BME280;34442;52.362;-1.302;2023-07-31T05:12:58;99067.72;;;19.12;100.00
48652;BME280;34442;52.362;-1.302;2023-07-31T05:15:24;99071.63;;;19.06;100.00
48652;BME280;34442;52.362;-1.302;2023-07-31T05:17:49;99077.66;;;19.03;100.00
48652;BME280;34442;52.362;-1.302;2023-07-31T05:20:15;99078.47;;;19.03;100.00
48652;BME280;34442;52.362;-1.302;2023-07-31T05:22:40;99071.31;;;19.07;100.00
48652;BME280;34442;52.362;-1.302;2023-07-31T05:25:06;99076.69;;;19.13;100.00
48652;BME280;34442;52.362;-1.302;2023-07-31T05:27:32;99079.19;;;19.09;100.00
48652;BME280;34442;52.362;-1.302;2023-07-31T05:29:58;99073.97;;;19.13;100.00
48652;BME280;34442;52.362;-1.302;2023-07-31T05:32:23;99079.94;;;19.15;100.00
48652;BME280;34442;52.362;-1.302;2023-07-31T05:34:51;99067.22;;;19.10;100.00
48652;BME280;34442;52.362;-1.302;2023-07-31T05:37:17;99078.59;;;19.12;100.00
48652;BME280;34442;52.362;-1.302;2023-07-31T05:39:42;99074.84;;;19.27;100.00
48652;BME280;34442;52.362;-1.302;2023-07-31T05:42:08;99069.63;;;19.30;100.00
48652;BME280;34442;52.362;-1.302;2023-07-31T05:44:33;99079.63;;;19.35;100.00
48652;BME280;34442;52.362;-1.302;2023-07-31T05:46:59;99073.78;;;19.42;100.00
48652;BME280;34442;52.362;-1.302;2023-07-31T05:49:24;99084.69;;;19.42;100.00
48652;BME280;34442;52.362;-1.302;2023-07-31T05:51:50;99088.31;;;19.37;100.00
48652;BME280;34442;52.362;-1.302;2023-07-31T05:54:15;99094.16;;;19.30;100.00
48652;BME280;34442;52.362;-1.302;2023-07-31T05:56:40;99093.63;;;19.28;100.00
48652;BME280;34442;52.362;-1.302;2023-07-31T05:59:06;99093.34;;;19.30;100.00
48652;BME280;34442;52.362;-1.302;2023-07-31T06:01:31;99100.91;;;19.33;100.00
48652;BME280;34442;52.362;-1.302;2023-07-31T06:03:57;99102.19;;;19.22;100.00
48652;BME280;34442;52.362;-1.302;2023-07-31T06:06:22;99097.56;;;19.22;100.00
48652;BME280;34442;52.362;-1.302;2023-07-31T06:08:48;99087.94;;;19.25;100.00
48652;BME280;34442;52.362;-1.302;2023-07-31T06:11:15;99077.66;;;19.22;100.00
48652;BME280;34442;52.362;-1.302;2023-07-31T06:13:40;99067.50;;;19.27;100.00
48652;BME280;34442;52.362;-1.302;2023-07-31T06:16:07;99063.06;;;19.31;100.00
48652;BME280;34442;52.362;-1.302;2023-07-31T06:18:33;99068.28;;;19.28;100.00
48652;BME280;34442;52.362;-1.302;2023-07-31T06:20:58;99051.59;;;19.34;100.00
48652;BME280;34442;52.362;-1.302;2023-07-31T06:23:24;99050.97;;;19.38;100.00
48652;BME280;34442;52.362;-1.302;2023-07-31T06:25:49;99042.28;;;19.36;100.00
48652;BME280;34442;52.362;-1.302;2023-07-31T06:28:15;99060.03;;;19.33;100.00
48652;BME280;34442;52.362;-1.302;2023-07-31T06:30:40;99062.75;;;19.33;100.00
48652;BME280;34442;52.362;-1.302;2023-07-31T06:33:05;99062.53;;;19.29;100.00
48652;BME280;34442;52.362;-1.302;2023-07-31T06:35:31;99056.84;;;19.45;100.00
48652;BME280;34442;52.362;-1.302;2023-07-31T06:37:56;99059.69;;;19.53;100.00
48652;BME280;34442;52.362;-1.302;2023-07-31T06:40:22;99048.09;;;19.48;100.00
48652;BME280;34442;52.362;-1.302;2023-07-31T06:42:48;99038.19;;;19.52;100.00
48652;BME280;34442;52.362;-1.302;2023-07-31T06:45:13;99036.88;;;19.49;100.00
48652;BME280;34442;52.362;-1.302;2023-07-31T06:47:38;99039.09;;;19.47;100.00
48652;BME280;34442;52.362;-1.302;2023-07-31T06:50:05;99042.03;;;19.51;100.00
48652;BME280;34442;52.362;-1.302;2023-07-31T06:52:30;99054.88;;;19.50;100.00
48652;BME280;34442;52.362;-1.302;2023-07-31T06:55:01;99051.63;;;19.48;100.00
48652;BME280;34442;52.362;-1.302;2023-07-31T06:57:27;99065.47;;;19.52;100.00
48652;BME280;34442;52.362;-1.302;2023-07-31T06:59:53;99065.53;;;19.66;100.00
48652;BME280;34442;52.362;-1.302;2023-07-31T07:02:18;99077.53;;;19.65;100.00
48652;BME280;34442;52.362;-1.302;2023-07-31T07:04:43;99057.88;;;19.81;100.00
48652;BME280;34442;52.362;-1.302;2023-07-31T07:07:09;99065.28;;;19.81;100.00
48652;BME280;34442;52.362;-1.302;2023-07-31T07:09:34;99063.25;;;19.87;100.00
48652;BME280;34442;52.362;-1.302;2023-07-31T07:12:00;99053.03;;;19.78;100.00
48652;BME280;34442;52.362;-1.302;2023-07-31T07:14:26;99051.50;;;19.72;100.00
48652;BME280;34442;52.362;-1.302;2023-07-31T07:16:51;99052.63;;;19.71;100.00
48652;BME280;34442;52.362;-1.302;2023-07-31T07:19:17;99052.81;;;19.75;100.00
48652;BME280;34442;52.362;-1.302;2023-07-31T07:21:42;99050.03;;;19.80;100.00
48652;BME280;34442;52.362;-1.302;2023-07-31T07:24:10;99052.34;;;19.87;100.00
48652;BME280;34442;52.362;-1.302;2023-07-31T07:26:36;99061.06;;;20.02;100.00
48652;BME280;34442;52.362;-1.302;2023-07-31T07:29:01;99049.97;;;20.13;100.00
48652;BME280;34442;52.362;-1.302;2023-07-31T07:31:28;99050.56;;;20.10;100.00
48652;BME280;34442;52.362;-1.302;2023-07-31T07:33:53;99049.53;;;19.92;100.00
48652;BME280;34442;52.362;-1.302;2023-07-31T07:36:19;99054.00;;;20.01;100.00
48652;BME280;34442;52.362;-1.302;2023-07-31T07:38:44;99036.38;;;19.80;100.00
48652;BME280;34442;52.362;-1.302;2023-07-31T07:41:10;99046.28;;;19.76;100.00
48652;BME280;34442;52.362;-1.302;2023-07-31T07:43:35;99042.66;;;19.94;100.00
48652;BME280;34442;52.362;-1.302;2023-07-31T07:46:01;99020.84;;;20.08;100.00
48652;BME280;34442;52.362;-1.302;2023-07-31T07:48:26;99023.06;;;20.06;100.00
48652;BME280;34442;52.362;-1.302;2023-07-31T07:50:51;99018.41;;;20.06;100.00
48652;BME280;34442;52.362;-1.302;2023-07-31T07:53:17;99021.56;;;20.00;100.00
48652;BME280;34442;52.362;-1.302;2023-07-31T07:55:42;99028.53;;;20.06;100.00
48652;BME280;34442;52.362;-1.302;2023-07-31T07:58:08;99031.94;;;19.98;100.00
48652;BME280;34442;52.362;-1.302;2023-07-31T08:00:33;99052.75;;;19.94;100.00
48652;BME280;34442;52.362;-1.302;2023-07-31T08:02:58;99056.09;;;19.91;100.00
48652;BME280;34442;52.362;-1.302;2023-07-31T08:05:24;99055.16;;;19.81;100.00
48652;BME280;34442;52.362;-1.302;2023-07-31T08:07:50;99055.06;;;19.87;100.00
48652;BME280;34442;52.362;-1.302;2023-07-31T08:10:15;99027.41;;;19.93;100.00
48652;BME280;34442;52.362;-1.302;2023-07-31T08:12:40;99027.63;;;19.97;100.00
48652;BME280;34442;52.362;-1.302;2023-07-31T08:15:06;99035.97;;;19.73;100.00
48652;BME280;34442;52.362;-1.302;2023-07-31T08:17:31;99028.91;;;19.72;100.00
48652;BME280;34442;52.362;-1.302;2023-07-31T08:19:57;99044.81;;;19.65;100.00
48652;BME280;34442;52.362;-1.302;2023-07-31T08:22:23;99034.78;;;19.60;100.00
48652;BME280;34442;52.362;-1.302;2023-07-31T08:24:49;99027.41;;;19.61;100.00
48652;BME280;34442;52.362;-1.302;2023-07-31T08:27:14;99033.47;;;19.57;100.00
48652;BME280;34442;52.362;-1.302;2023-07-31T08:29:39;99034.38;;;19.53;100.00
48652;BME280;34442;52.362;-1.302;2023-07-31T08:32:05;99026.63;;;19.60;100.00
48652;BME280;34442;52.362;-1.302;2023-07-31T08:34:31;99021.09;;;19.79;100.00
48652;BME280;34442;52.362;-1.302;2023-07-31T08:36:56;99018.22;;;19.89;100.00
48652;BME280;34442;52.362;-1.302;2023-07-31T08:39:21;99026.28;;;19.94;100.00
48652;BME280;34442;52.362;-1.302;2023-07-31T08:41:47;99032.34;;;19.91;100.00
48652;BME280;34442;52.362;-1.302;2023-07-31T08:44:15;99020.03;;;19.94;100.00
48652;BME280;34442;52.362;-1.302;2023-07-31T08:46:42;99023.88;;;19.93;100.00
48652;BME280;34442;52.362;-1.302;2023-07-31T08:49:09;99019.53;;;19.92;100.00
48652;BME280;34442;52.362;-1.302;2023-07-31T08:51:36;99018.41;;;19.93;100.00
48652;BME280;34442;52.362;-1.302;2023-07-31T08:54:01;99012.06;;;19.97;100.00
48652;BME280;34442;52.362;-1.302;2023-07-31T08:56:29;99006.97;;;19.91;100.00
48652;BME280;34442;52.362;-1.302;2023-07-31T09:01:37;99014.16;;;19.87;100.00
48652;BME280;34442;52.362;-1.302;2023-07-31T09:04:06;99023.84;;;19.79;100.00
48652;BME280;34442;52.362;-1.302;2023-07-31T09:06:34;99024.66;;;19.79;100.00
48652;BME280;34442;52.362;-1.302;2023-07-31T09:09:00;99038.81;;;19.81;100.00
48652;BME280;34442;52.362;-1.302;2023-07-31T09:11:26;99030.63;;;19.81;100.00
48652;BME280;34442;52.362;-1.302;2023-07-31T09:13:52;99027.19;;;19.90;100.00
48652;BME280;34442;52.362;-1.302;2023-07-31T09:16:18;99015.97;;;19.91;100.00
48652;BME280;34442;52.362;-1.302;2023-07-31T09:18:56;99020.72;;;19.86;100.00
48652;BME280;34442;52.362;-1.302;2023-07-31T09:21:23;99013.25;;;19.91;100.00
48652;BME280;34442;52.362;-1.302;2023-07-31T09:23:49;99010.03;;;19.89;100.00
48652;BME280;34442;52.362;-1.302;2023-07-31T09:26:36;99006.78;;;19.87;100.00
48652;BME280;34442;52.362;-1.302;2023-07-31T09:29:06;99008.09;;;19.90;100.00
48652;BME280;34442;52.362;-1.302;2023-07-31T09:31:43;99006.19;;;19.90;100.00
48652;BME280;34442;52.362;-1.302;2023-07-31T09:34:08;99000.81;;;19.99;100.00
48652;BME280;34442;52.362;-1.302;2023-07-31T09:36:41;98993.06;;;20.06;100.00
48652;BME280;34442;52.362;-1.302;2023-07-31T09:39:10;98985.88;;;20.10;100.00
48652;BME280;34442;52.362;-1.302;2023-07-31T09:41:43;98993.06;;;20.06;100.00
48652;BME280;34442;52.362;-1.302;2023-07-31T09:44:09;99002.63;;;20.03;100.00
48652;BME280;34442;52.362;-1.302;2023-07-31T09:46:36;99001.84;;;20.03;100.00
48652;BME280;34442;52.362;-1.302;2023-07-31T09:51:35;98998.31;;;20.16;100.00
48652;BME280;34442;52.362;-1.302;2023-07-31T09:54:14;99000.63;;;20.09;100.00
48652;BME280;34442;52.362;-1.302;2023-07-31T09:56:46;98994.28;;;20.14;100.00
48652;BME280;34442;52.362;-1.302;2023-07-31T09:59:17;98976.06;;;20.23;100.00
48652;BME280;34442;52.362;-1.302;2023-07-31T10:01:44;98970.56;;;20.37;100.00
48652;BME280;34442;52.362;-1.302;2023-07-31T10:04:12;98976.06;;;20.50;100.00
48652;BME280;34442;52.362;-1.302;2023-07-31T10:06:38;98974.88;;;20.65;100.00
48652;BME280;34442;52.362;-1.302;2023-07-31T10:09:06;98970.94;;;20.71;100.00
48652;BME280;34442;52.362;-1.302;2023-07-31T10:11:41;98965.81;;;20.56;100.00
48652;BME280;34442;52.362;-1.302;2023-07-31T10:14:10;98974.41;;;20.63;100.00
48652;BME280;34442;52.362;-1.302;2023-07-31T10:16:37;98980.47;;;20.60;100.00
48652;BME280;34442;52.362;-1.302;2023-07-31T10:19:03;98976.88;;;20.51;100.00
48652;BME280;34442;52.362;-1.302;2023-07-31T10:21:30;98991.69;;;20.45;100.00
48652;BME280;34442;52.362;-1.302;2023-07-31T10:23:56;98992.03;;;20.29;100.00
48652;BME280;34442;52.362;-1.302;2023-07-31T10:26:23;98991.84;;;20.12;100.00
48652;BME280;34442;52.362;-1.302;2023-07-31T10:28:50;98983.75;;;19.93;100.00
48652;BME280;34442;52.362;-1.302;2023-07-31T10:31:16;98987.78;;;19.82;100.00
48652;BME280;34442;52.362;-1.302;2023-07-31T10:33:43;99002.22;;;19.82;100.00
48652;BME280;34442;52.362;-1.302;2023-07-31T10:36:21;99019.91;;;19.71;100.00
48652;BME280;34442;52.362;-1.302;2023-07-31T10:38:50;99015.88;;;19.50;100.00
48652;BME280;34442;52.362;-1.302;2023-07-31T10:41:18;99021.53;;;19.53;100.00
48652;BME280;34442;52.362;-1.302;2023-07-31T10:43:46;99030.63;;;19.49;100.00
48652;BME280;34442;52.362;-1.302;2023-07-31T10:46:13;99045.06;;;19.49;100.00
48652;BME280;34442;52.362;-1.302;2023-07-31T10:48:40;99035.13;;;19.40;100.00
48652;BME280;34442;52.362;-1.302;2023-07-31T10:51:11;99031.59;;;19.39;100.00
48652;BME280;34442;52.362;-1.302;2023-07-31T10:53:42;99020.97;;;19.38;100.00
48652;BME280;34442;52.362;-1.302;2023-07-31T10:56:09;99000.81;;;19.39;100.00
48652;BME280;34442;52.362;-1.302;2023-07-31T10:58:37;98992.72;;;19.33;100.00
48652;BME280;34442;52.362;-1.302;2023-07-31T11:01:04;98998.78;;;19.30;100.00
48652;BME280;34442;52.362;-1.302;2023-07-31T11:03:48;99002.81;;;19.33;100.00
48652;BME280;34442;52.362;-1.302;2023-07-31T11:06:15;99017.91;;;19.25;100.00
48652;BME280;34442;52.362;-1.302;2023-07-31T11:08:45;99028.28;;;19.42;100.00
48652;BME280;34442;52.362;-1.302;2023-07-31T11:11:13;99025.69;;;19.51;100.00
48652;BME280;34442;52.362;-1.302;2023-07-31T11:13:52;99017.97;;;19.72;100.00
48652;BME280;34442;52.362;-1.302;2023-07-31T11:16:20;99022.44;;;19.68;100.00
48652;BME280;34442;52.362;-1.302;2023-07-31T11:18:47;99041.09;;;19.74;100.00
48652;BME280;34442;52.362;-1.302;2023-07-31T11:21:16;99050.09;;;19.75;100.00
48652;BME280;34442;52.362;-1.302;2023-07-31T11:23:45;99052.41;;;19.68;100.00
48652;BME280;34442;52.362;-1.302;2023-07-31T11:26:11;99045.69;;;19.60;100.00
48652;BME280;34442;52.362;-1.302;2023-07-31T11:28:37;99038.41;;;19.55;100.00
48652;BME280;34442;52.362;-1.302;2023-07-31T11:31:04;99031.63;;;19.53;100.00
48652;BME280;34442;52.362;-1.302;2023-07-31T11:33:30;99027.47;;;19.42;100.00
48652;BME280;34442;52.362;-1.302;2023-07-31T11:35:56;99025.69;;;19.51;100.00
48652;BME280;34442;52.362;-1.302;2023-07-31T11:38:32;99015.84;;;19.69;100.00
48652;BME280;34442;52.362;-1.302;2023-07-31T11:41:00;99023.09;;;19.59;100.00
48652;BME280;34442;52.362;-1.302;2023-07-31T11:43:26;99004.97;;;19.50;100.00
48652;BME280;34442;52.362;-1.302;2023-07-31T11:45:54;98996.78;;;19.50;100.00
48652;BME280;34442;52.362;-1.302;2023-07-31T11:50:50;98973.63;;;19.33;100.00
48652;BME280;34442;52.362;-1.302;2023-07-31T11:53:21;98977.47;;;19.32;100.00
48652;BME280;34442;52.362;-1.302;2023-07-31T11:55:47;98956.53;;;19.14;100.00
48652;BME280;34442;52.362;-1.302;2023-07-31T11:58:15;98955.84;;;19.22;100.00
48652;BME280;34442;52.362;-1.302;2023-07-31T12:00:41;98952.72;;;19.29;100.00
48652;BME280;34442;52.362;-1.302;2023-07-31T12:03:07;98949.75;;;19.12;100.00
48652;BME280;34442;52.362;-1.302;2023-07-31T12:05:33;98954.09;;;19.13;100.00
48652;BME280;34442;52.362;-1.302;2023-07-31T12:07:58;98956.13;;;19.21;100.00
48652;BME280;34442;52.362;-1.302;2023-07-31T12:13:07;98943.38;;;19.35;100.00
48652;BME280;34442;52.362;-1.302;2023-07-31T12:15:38;98946.22;;;19.44;100.00
48652;BME280;34442;52.362;-1.302;2023-07-31T12:18:05;98939.66;;;19.45;100.00
48652;BME280;34442;52.362;-1.302;2023-07-31T12:20:31;98945.19;;;19.40;100.00
48652;BME280;34442;52.362;-1.302;2023-07-31T12:22:57;98943.59;;;19.39;100.00
48652;BME280;34442;52.362;-1.302;2023-07-31T12:25:29;98926.72;;;19.37;100.00
48652;BME280;34442;52.362;-1.302;2023-07-31T12:27:54;98923.88;;;19.28;100.00
48652;BME280;34442;52.362;-1.302;2023-07-31T12:30:34;98910.13;;;19.19;100.00
48652;BME280;34442;52.362;-1.302;2023-07-31T12:33:14;98880.75;;;19.16;100.00
48652;BME280;34442;52.362;-1.302;2023-07-31T12:35:46;98880.38;;;19.23;100.00
48652;BME280;34442;52.362;-1.302;2023-07-31T12:38:13;98896.41;;;19.24;100.00
48652;BME280;34442;52.362;-1.302;2023-07-31T12:40:40;98894.91;;;19.18;100.00
48652;BME280;34442;52.362;-1.302;2023-07-31T12:43:06;98909.78;;;19.07;100.00
48652;BME280;34442;52.362;-1.302;2023-07-31T12:45:33;98949.88;;;19.20;100.00
48652;BME280;34442;52.362;-1.302;2023-07-31T12:47:59;98988.25;;;19.24;100.00
48652;BME280;34442;52.362;-1.302;2023-07-31T12:50:24;99009.66;;;18.98;100.00
48652;BME280;34442;52.362;-1.302;2023-07-31T12:52:51;98998.38;;;18.86;100.00